sensor_id;sensor_type;location;lat;lon;timestamp;temperature;humidity
60027;DHT22;45891;53.006;6.512;2024-03-08T00:00:05;1.60;99.90
60027;DHT22;45891;53.006;6.512;2024-03-08T00:02:36;1.60;99.90
60027;DHT22;45891;53.006;6.512;2024-03-08T00:05:03;1.60;99.90
60027;DHT22;45891;53.006;6.512;2024-03-08T00:07:29;1.60;99.90
60027;DHT22;45891;53.006;6.512;2024-03-08T00:09:55;1.50;99.90
60027;DHT22;45891;53.006;6.512;2024-03-08T00:12:21;1.50;99.90
60027;DHT22;45891;53.006;6.512;2024-03-08T00:14:47;1.50;99.90
60027;DHT22;45891;53.006;6.512;2024-03-08T00:17:13;1.40;99.90
60027;DHT22;45891;53.006;6.512;2024-03-08T00:19:39;1.40;99.90
60027;DHT22;45891;53.006;6.512;2024-03-08T00:22:05;1.40;99.90
60027;DHT22;45891;53.006;6.512;2024-03-08T00:24:31;1.40;99.90
60027;DHT22;45891;53.006;6.512;2024-03-08T00:26:57;1.50;99.90
60027;DHT22;45891;53.006;6.512;2024-03-08T00:29:24;1.50;99.90
60027;DHT22;45891;53.006;6.512;2024-03-08T00:31:50;1.40;99.90
60027;DHT22;45891;53.006;6.512;2024-03-08T00:34:16;1.40;99.90
60027;DHT22;45891;53.006;6.512;2024-03-08T00:36:42;1.40;99.90
60027;DHT22;45891;53.006;6.512;2024-03-08T00:39:08;1.50;99.90
60027;DHT22;45891;53.006;6.512;2024-03-08T00:41:34;1.50;99.90
60027;DHT22;45891;53.006;6.512;2024-03-08T00:43:59;1.40;99.90
60027;DHT22;45891;53.006;6.512;2024-03-08T00:46:26;1.40;99.90
60027;DHT22;45891;53.006;6.512;2024-03-08T00:48:54;1.40;99.90
60027;DHT22;45891;53.006;6.512;2024-03-08T00:51:19;1.40;99.90
60027;DHT22;45891;53.006;6.512;2024-03-08T00:53:45;1.40;99.90
60027;DHT22;45891;53.006;6.512;2024-03-08T00:56:12;1.40;99.90
60027;DHT22;45891;53.006;6.512;2024-03-08T00:58:38;1.40;99.90
60027;DHT22;45891;53.006;6.512;2024-03-08T01:01:04;1.30;99.90
60027;DHT22;45891;53.006;6.512;2024-03-08T01:03:30;1.30;99.90
60027;DHT22;45891;53.006;6.512;2024-03-08T01:06:00;1.30;99.90
60027;DHT22;45891;53.006;6.512;2024-03-08T01:08:30;1.30;99.90
60027;DHT22;45891;53.006;6.512;2024-03-08T01:10:56;1.30;99.90
60027;DHT22;45891;53.006;6.512;2024-03-08T01:13:22;1.30;99.90
60027;DHT22;45891;53.006;6.512;2024-03-08T01:15:47;1.30;99.90
60027;DHT22;45891;53.006;6.512;2024-03-08T01:18:13;1.30;99.90
60027;DHT22;45891;53.006;6.512;2024-03-08T01:20:39;1.30;99.90
60027;DHT22;45891;53.006;6.512;2024-03-08T01:23:07;1.30;99.90
60027;DHT22;45891;53.006;6.512;2024-03-08T01:25:33;1.30;99.90
60027;DHT22;45891;53.006;6.512;2024-03-08T01:27:59;1.30;99.90
60027;DHT22;45891;53.006;6.512;2024-03-08T01:30:25;1.20;99.90
60027;DHT22;45891;53.006;6.512;2024-03-08T01:32:51;1.20;99.90
60027;DHT22;45891;53.006;6.512;2024-03-08T01:35:17;1.30;99.90
60027;DHT22;45891;53.006;6.512;2024-03-08T01:37:44;1.30;99.90
60027;DHT22;45891;53.006;6.512;2024-03-08T01:40:10;1.30;99.90
60027;DHT22;45891;53.006;6.512;2024-03-08T01:42:35;1.30;99.90
60027;DHT22;45891;53.006;6.512;2024-03-08T01:45:05;1.20;99.90
60027;DHT22;45891;53.006;6.512;2024-03-08T01:47:31;1.20;99.90
60027;DHT22;45891;53.006;6.512;2024-03-08T01:49:59;1.20;99.90
60027;DHT22;45891;53.006;6.512;2024-03-08T01:52:28;1.20;99.90
60027;DHT22;45891;53.006;6.512;2024-03-08T01:54:54;1.10;99.90
60027;DHT22;45891;53.006;6.512;2024-03-08T01:57:20;1.10;99.90
60027;DHT22;45891;53.006;6.512;2024-03-08T01:59:46;1.10;99.90
60027;DHT22;45891;53.006;6.512;2024-03-08T02:02:12;1.10;99.90
60027;DHT22;45891;53.006;6.512;2024-03-08T02:04:40;1.10;99.90
60027;DHT22;45891;53.006;6.512;2024-03-08T02:07:06;1.10;99.90
60027;DHT22;45891;53.006;6.512;2024-03-08T02:09:32;1.00;99.90
60027;DHT22;45891;53.006;6.512;2024-03-08T02:11:58;1.00;99.90
60027;DHT22;45891;53.006;6.512;2024-03-08T02:14:24;1.00;99.90
60027;DHT22;45891;53.006;6.512;2024-03-08T02:16:50;1.00;99.90
60027;DHT22;45891;53.006;6.512;2024-03-08T02:19:17;1.00;99.90
60027;DHT22;45891;53.006;6.512;2024-03-08T02:21:43;1.00;99.90
60027;DHT22;45891;53.006;6.512;2024-03-08T02:24:09;1.00;99.90
60027;DHT22;45891;53.006;6.512;2024-03-08T02:26:35;1.00;99.90
60027;DHT22;45891;53.006;6.512;2024-03-08T02:29:01;1.00;99.90
60027;DHT22;45891;53.006;6.512;2024-03-08T02:31:27;0.90;99.90
60027;DHT22;45891;53.006;6.512;2024-03-08T02:33:53;1.00;99.90
60027;DHT22;45891;53.006;6.512;2024-03-08T02:36:20;0.90;99.90
60027;DHT22;45891;53.006;6.512;2024-03-08T02:38:46;0.90;99.90
60027;DHT22;45891;53.006;6.512;2024-03-08T02:41:11;0.90;99.90
60027;DHT22;45891;53.006;6.512;2024-03-08T02:43:38;0.90;99.90
60027;DHT22;45891;53.006;6.512;2024-03-08T02:46:03;0.90;99.90
60027;DHT22;45891;53.006;6.512;2024-03-08T02:48:30;0.90;99.90
60027;DHT22;45891;53.006;6.512;2024-03-08T02:50:56;0.90;99.90
60027;DHT22;45891;53.006;6.512;2024-03-08T02:53:22;0.90;99.90
60027;DHT22;45891;53.006;6.512;2024-03-08T02:55:50;0.80;99.90
60027;DHT22;45891;53.006;6.512;2024-03-08T02:58:16;0.80;99.90
60027;DHT22;45891;53.006;6.512;2024-03-08T03:00:42;0.80;99.90
60027;DHT22;45891;53.006;6.512;2024-03-08T03:03:09;0.80;99.90
60027;DHT22;45891;53.006;6.512;2024-03-08T03:05:35;0.70;99.90
60027;DHT22;45891;53.006;6.512;2024-03-08T03:08:01;0.80;99.90
60027;DHT22;45891;53.006;6.512;2024-03-08T03:10:29;0.80;99.90
60027;DHT22;45891;53.006;6.512;2024-03-08T03:12:55;0.70;99.90
60027;DHT22;45891;53.006;6.512;2024-03-08T03:15:21;0.80;99.90
60027;DHT22;45891;53.006;6.512;2024-03-08T03:17:50;0.80;99.90
60027;DHT22;45891;53.006;6.512;2024-03-08T03:20:18;0.70;99.90
60027;DHT22;45891;53.006;6.512;2024-03-08T03:22:58;0.70;99.90
60027;DHT22;45891;53.006;6.512;2024-03-08T03:25:26;0.70;99.90
60027;DHT22;45891;53.006;6.512;2024-03-08T03:27:58;0.70;99.90
60027;DHT22;45891;53.006;6.512;2024-03-08T03:30:24;0.70;99.90
60027;DHT22;45891;53.006;6.512;2024-03-08T03:32:52;0.60;99.90
60027;DHT22;45891;53.006;6.512;2024-03-08T03:35:22;0.60;99.90
60027;DHT22;45891;53.006;6.512;2024-03-08T03:37:49;0.60;99.90
60027;DHT22;45891;53.006;6.512;2024-03-08T03:40:28;0.60;99.90
60027;DHT22;45891;53.006;6.512;2024-03-08T03:42:54;0.60;99.90
60027;DHT22;45891;53.006;6.512;2024-03-08T03:45:20;0.70;99.90
60027;DHT22;45891;53.006;6.512;2024-03-08T03:47:46;0.60;99.90
60027;DHT22;45891;53.006;6.512;2024-03-08T03:50:12;0.60;99.90
60027;DHT22;45891;53.006;6.512;2024-03-08T03:52:38;0.60;99.90
60027;DHT22;45891;53.006;6.512;2024-03-08T03:55:04;0.60;99.90
60027;DHT22;45891;53.006;6.512;2024-03-08T03:57:30;0.50;99.90
60027;DHT22;45891;53.006;6.512;2024-03-08T03:59:56;0.50;99.90
60027;DHT22;45891;53.006;6.512;2024-03-08T04:02:24;0.50;99.90
60027;DHT22;45891;53.006;6.512;2024-03-08T04:04:52;0.50;99.90
60027;DHT22;45891;53.006;6.512;2024-03-08T04:07:18;0.50;99.90
60027;DHT22;45891;53.006;6.512;2024-03-08T04:09:44;0.40;99.90
60027;DHT22;45891;53.006;6.512;2024-03-08T04:12:10;0.40;99.90
60027;DHT22;45891;53.006;6.512;2024-03-08T04:14:36;0.40;99.90
60027;DHT22;45891;53.006;6.512;2024-03-08T04:17:02;0.40;99.90
60027;DHT22;45891;53.006;6.512;2024-03-08T04:19:28;0.40;99.90
60027;DHT22;45891;53.006;6.512;2024-03-08T04:21:55;0.40;99.90
60027;DHT22;45891;53.006;6.512;2024-03-08T04:24:20;0.40;99.90
60027;DHT22;45891;53.006;6.512;2024-03-08T04:26:46;0.40;99.90
60027;DHT22;45891;53.006;6.512;2024-03-08T04:29:13;0.40;99.90
60027;DHT22;45891;53.006;6.512;2024-03-08T04:31:40;0.40;99.90
60027;DHT22;45891;53.006;6.512;2024-03-08T04:34:06;0.30;99.90
60027;DHT22;45891;53.006;6.512;2024-03-08T04:36:32;0.30;99.90
60027;DHT22;45891;53.006;6.512;2024-03-08T04:38:59;0.30;99.90
60027;DHT22;45891;53.006;6.512;2024-03-08T04:41:26;0.30;99.90
60027;DHT22;45891;53.006;6.512;2024-03-08T04:43:52;0.30;99.90
60027;DHT22;45891;53.006;6.512;2024-03-08T04:46:18;0.30;99.90
60027;DHT22;45891;53.006;6.512;2024-03-08T04:48:45;0.30;99.90
60027;DHT22;45891;53.006;6.512;2024-03-08T04:51:11;0.30;99.90
60027;DHT22;45891;53.006;6.512;2024-03-08T04:53:37;0.30;99.90
60027;DHT22;45891;53.006;6.512;2024-03-08T04:56:03;0.30;99.90
60027;DHT22;45891;53.006;6.512;2024-03-08T04:58:32;0.30;99.90
60027;DHT22;45891;53.006;6.512;2024-03-08T05:01:00;0.30;99.90
60027;DHT22;45891;53.006;6.512;2024-03-08T05:03:27;0.30;99.90
60027;DHT22;45891;53.006;6.512;2024-03-08T05:05:52;0.30;99.90
60027;DHT22;45891;53.006;6.512;2024-03-08T05:08:18;0.30;99.90
60027;DHT22;45891;53.006;6.512;2024-03-08T05:10:45;0.30;99.90
60027;DHT22;45891;53.006;6.512;2024-03-08T05:13:12;0.30;99.90
60027;DHT22;45891;53.006;6.512;2024-03-08T05:15:38;0.30;99.90
60027;DHT22;45891;53.006;6.512;2024-03-08T05:18:05;0.20;99.90
60027;DHT22;45891;53.006;6.512;2024-03-08T05:20:31;0.30;99.90
60027;DHT22;45891;53.006;6.512;2024-03-08T05:22:56;0.30;99.90
60027;DHT22;45891;53.006;6.512;2024-03-08T05:25:26;0.20;99.90
60027;DHT22;45891;53.006;6.512;2024-03-08T05:27:52;0.20;99.90
60027;DHT22;45891;53.006;6.512;2024-03-08T05:30:18;0.20;99.90
60027;DHT22;45891;53.006;6.512;2024-03-08T05:32:44;0.20;99.90
60027;DHT22;45891;53.006;6.512;2024-03-08T05:35:10;0.10;99.90
60027;DHT22;45891;53.006;6.512;2024-03-08T05:37:36;0.20;99.90
60027;DHT22;45891;53.006;6.512;2024-03-08T05:40:02;0.20;99.90
60027;DHT22;45891;53.006;6.512;2024-03-08T05:42:29;0.10;99.90
60027;DHT22;45891;53.006;6.512;2024-03-08T05:44:55;0.10;99.90
60027;DHT22;45891;53.006;6.512;2024-03-08T05:47:22;0.10;99.90
60027;DHT22;45891;53.006;6.512;2024-03-08T05:49:48;0.10;99.90
60027;DHT22;45891;53.006;6.512;2024-03-08T05:52:15;0.10;99.90
60027;DHT22;45891;53.006;6.512;2024-03-08T05:54:41;0.00;99.90
60027;DHT22;45891;53.006;6.512;2024-03-08T05:57:07;0.10;99.90
60027;DHT22;45891;53.006;6.512;2024-03-08T05:59:33;0.00;99.90
60027;DHT22;45891;53.006;6.512;2024-03-08T06:01:58;0.00;99.90
60027;DHT22;45891;53.006;6.512;2024-03-08T06:04:24;0.10;99.90
60027;DHT22;45891;53.006;6.512;2024-03-08T06:06:50;0.00;99.90
60027;DHT22;45891;53.006;6.512;2024-03-08T06:09:17;0.00;99.90
60027;DHT22;45891;53.006;6.512;2024-03-08T06:11:48;0.00;99.90
60027;DHT22;45891;53.006;6.512;2024-03-08T06:14:14;0.00;99.90
60027;DHT22;45891;53.006;6.512;2024-03-08T06:16:44;0.10;99.90
60027;DHT22;45891;53.006;6.512;2024-03-08T06:19:10;0.10;99.90
60027;DHT22;45891;53.006;6.512;2024-03-08T06:21:37;0.00;99.90
60027;DHT22;45891;53.006;6.512;2024-03-08T06:24:03;0.10;99.90
60027;DHT22;45891;53.006;6.512;2024-03-08T06:26:30;0.10;99.90
60027;DHT22;45891;53.006;6.512;2024-03-08T06:28:56;0.10;99.90
60027;DHT22;45891;53.006;6.512;2024-03-08T06:31:21;0.10;99.90
60027;DHT22;45891;53.006;6.512;2024-03-08T06:33:47;0.10;99.90
60027;DHT22;45891;53.006;6.512;2024-03-08T06:36:16;0.10;99.90
60027;DHT22;45891;53.006;6.512;2024-03-08T06:38:47;0.10;99.90
60027;DHT22;45891;53.006;6.512;2024-03-08T06:41:13;0.20;99.90
60027;DHT22;45891;53.006;6.512;2024-03-08T06:43:42;0.20;99.90
60027;DHT22;45891;53.006;6.512;2024-03-08T06:46:08;0.20;99.90
60027;DHT22;45891;53.006;6.512;2024-03-08T06:48:35;0.20;99.90
60027;DHT22;45891;53.006;6.512;2024-03-08T06:51:02;0.30;99.90
60027;DHT22;45891;53.006;6.512;2024-03-08T06:53:28;0.30;99.90
60027;DHT22;45891;53.006;6.512;2024-03-08T06:55:54;0.30;99.90
60027;DHT22;45891;53.006;6.512;2024-03-08T06:58:20;0.40;99.90
60027;DHT22;45891;53.006;6.512;2024-03-08T07:00:46;0.40;99.90
60027;DHT22;45891;53.006;6.512;2024-03-08T07:03:12;0.40;99.90
60027;DHT22;45891;53.006;6.512;2024-03-08T07:05:43;0.50;99.90
60027;DHT22;45891;53.006;6.512;2024-03-08T07:08:09;0.50;99.90
60027;DHT22;45891;53.006;6.512;2024-03-08T07:10:35;0.60;99.90
60027;DHT22;45891;53.006;6.512;2024-03-08T07:13:02;0.60;99.90
60027;DHT22;45891;53.006;6.512;2024-03-08T07:15:31;0.70;99.90
60027;DHT22;45891;53.006;6.512;2024-03-08T07:17:56;0.70;99.90
60027;DHT22;45891;53.006;6.512;2024-03-08T07:20:22;0.70;99.90
60027;DHT22;45891;53.006;6.512;2024-03-08T07:22:48;0.80;99.90
60027;DHT22;45891;53.006;6.512;2024-03-08T07:25:16;0.80;99.90
60027;DHT22;45891;53.006;6.512;2024-03-08T07:27:47;0.90;99.90
60027;DHT22;45891;53.006;6.512;2024-03-08T07:30:13;0.90;99.90
60027;DHT22;45891;53.006;6.512;2024-03-08T07:32:59;1.00;99.90
60027;DHT22;45891;53.006;6.512;2024-03-08T07:35:25;1.10;99.90
60027;DHT22;45891;53.006;6.512;2024-03-08T07:37:52;1.10;99.90
60027;DHT22;45891;53.006;6.512;2024-03-08T07:40:21;1.20;99.90
60027;DHT22;45891;53.006;6.512;2024-03-08T07:42:47;1.20;99.90
60027;DHT22;45891;53.006;6.512;2024-03-08T07:45:12;1.30;99.90
60027;DHT22;45891;53.006;6.512;2024-03-08T07:47:38;1.30;99.90
60027;DHT22;45891;53.006;6.512;2024-03-08T07:50:05;1.40;99.90
60027;DHT22;45891;53.006;6.512;2024-03-08T07:52:34;1.40;99.90
60027;DHT22;45891;53.006;6.512;2024-03-08T07:55:00;1.50;99.90
60027;DHT22;45891;53.006;6.512;2024-03-08T07:57:26;1.50;99.90
60027;DHT22;45891;53.006;6.512;2024-03-08T07:59:52;1.50;99.90
60027;DHT22;45891;53.006;6.512;2024-03-08T08:02:18;1.60;99.90
60027;DHT22;45891;53.006;6.512;2024-03-08T08:04:44;1.70;99.90
60027;DHT22;45891;53.006;6.512;2024-03-08T08:07:10;1.70;99.90
60027;DHT22;45891;53.006;6.512;2024-03-08T08:09:37;1.80;99.90
60027;DHT22;45891;53.006;6.512;2024-03-08T08:12:03;1.90;99.90
60027;DHT22;45891;53.006;6.512;2024-03-08T08:14:29;1.90;99.90
60027;DHT22;45891;53.006;6.512;2024-03-08T08:16:56;2.00;99.90
60027;DHT22;45891;53.006;6.512;2024-03-08T08:19:23;2.10;99.90
60027;DHT22;45891;53.006;6.512;2024-03-08T08:21:49;2.10;99.90
60027;DHT22;45891;53.006;6.512;2024-03-08T08:24:14;2.20;99.90
60027;DHT22;45891;53.006;6.512;2024-03-08T08:26:40;2.20;99.90
60027;DHT22;45891;53.006;6.512;2024-03-08T08:29:07;2.20;99.90
60027;DHT22;45891;53.006;6.512;2024-03-08T08:31:33;2.30;99.90
60027;DHT22;45891;53.006;6.512;2024-03-08T08:33:59;2.40;99.90
60027;DHT22;45891;53.006;6.512;2024-03-08T08:36:25;2.40;99.90
60027;DHT22;45891;53.006;6.512;2024-03-08T08:38:51;2.50;99.90
60027;DHT22;45891;53.006;6.512;2024-03-08T08:41:19;2.50;99.90
60027;DHT22;45891;53.006;6.512;2024-03-08T08:43:47;2.60;99.90
60027;DHT22;45891;53.006;6.512;2024-03-08T08:46:18;2.60;99.90
60027;DHT22;45891;53.006;6.512;2024-03-08T08:48:44;2.70;99.90
60027;DHT22;45891;53.006;6.512;2024-03-08T08:51:11;2.80;99.90
60027;DHT22;45891;53.006;6.512;2024-03-08T08:53:41;2.80;99.90
60027;DHT22;45891;53.006;6.512;2024-03-08T08:56:09;2.90;99.90
60027;DHT22;45891;53.006;6.512;2024-03-08T08:58:42;2.90;99.90
60027;DHT22;45891;53.006;6.512;2024-03-08T09:01:08;3.00;99.90
60027;DHT22;45891;53.006;6.512;2024-03-08T09:03:38;3.00;99.90
60027;DHT22;45891;53.006;6.512;2024-03-08T09:06:06;3.10;99.90
60027;DHT22;45891;53.006;6.512;2024-03-08T09:08:38;3.10;99.90
60027;DHT22;45891;53.006;6.512;2024-03-08T09:11:04;3.20;99.90
60027;DHT22;45891;53.006;6.512;2024-03-08T09:13:31;3.20;99.90
60027;DHT22;45891;53.006;6.512;2024-03-08T09:15:57;3.30;99.90
60027;DHT22;45891;53.006;6.512;2024-03-08T09:18:23;3.30;99.90
60027;DHT22;45891;53.006;6.512;2024-03-08T09:20:49;3.40;99.90
60027;DHT22;45891;53.006;6.512;2024-03-08T09:23:19;3.40;99.90
60027;DHT22;45891;53.006;6.512;2024-03-08T09:25:45;3.40;99.90
60027;DHT22;45891;53.006;6.512;2024-03-08T09:28:12;3.50;99.90
60027;DHT22;45891;53.006;6.512;2024-03-08T09:30:38;3.60;99.90
60027;DHT22;45891;53.006;6.512;2024-03-08T09:33:04;3.60;99.90
60027;DHT22;45891;53.006;6.512;2024-03-08T09:35:30;3.70;99.90
60027;DHT22;45891;53.006;6.512;2024-03-08T09:37:56;3.80;99.90
60027;DHT22;45891;53.006;6.512;2024-03-08T09:40:22;3.90;99.90
60027;DHT22;45891;53.006;6.512;2024-03-08T09:42:50;3.90;99.90
60027;DHT22;45891;53.006;6.512;2024-03-08T09:45:16;4.00;99.90
60027;DHT22;45891;53.006;6.512;2024-03-08T09:47:42;4.00;99.90
60027;DHT22;45891;53.006;6.512;2024-03-08T09:50:10;4.10;99.90
60027;DHT22;45891;53.006;6.512;2024-03-08T09:52:38;4.10;99.90
60027;DHT22;45891;53.006;6.512;2024-03-08T09:55:08;4.20;99.90
60027;DHT22;45891;53.006;6.512;2024-03-08T09:57:37;4.30;99.90
60027;DHT22;45891;53.006;6.512;2024-03-08T10:00:06;4.30;99.90
60027;DHT22;45891;53.006;6.512;2024-03-08T10:02:49;4.60;99.90
60027;DHT22;45891;53.006;6.512;2024-03-08T10:05:15;4.90;99.90
60027;DHT22;45891;53.006;6.512;2024-03-08T10:07:42;5.50;99.90
60027;DHT22;45891;53.006;6.512;2024-03-08T10:10:08;6.20;99.90
60027;DHT22;45891;53.006;6.512;2024-03-08T10:12:38;7.00;99.90
60027;DHT22;45891;53.006;6.512;2024-03-08T10:15:06;7.80;99.90
60027;DHT22;45891;53.006;6.512;2024-03-08T10:17:31;8.40;99.90
60027;DHT22;45891;53.006;6.512;2024-03-08T10:19:58;8.90;99.90
60027;DHT22;45891;53.006;6.512;2024-03-08T10:22:25;9.70;99.90
60027;DHT22;45891;53.006;6.512;2024-03-08T10:24:51;10.30;99.90
60027;DHT22;45891;53.006;6.512;2024-03-08T10:27:17;10.70;99.90
60027;DHT22;45891;53.006;6.512;2024-03-08T10:29:46;11.10;99.90
60027;DHT22;45891;53.006;6.512;2024-03-08T10:32:11;11.50;98.60
60027;DHT22;45891;53.006;6.512;2024-03-08T10:34:37;11.50;98.10
60027;DHT22;45891;53.006;6.512;2024-03-08T10:37:04;11.60;98.10
60027;DHT22;45891;53.006;6.512;2024-03-08T10:39:33;11.30;98.40
60027;DHT22;45891;53.006;6.512;2024-03-08T10:42:02;11.10;98.90
60027;DHT22;45891;53.006;6.512;2024-03-08T10:47:15;11.70;98.20
60027;DHT22;45891;53.006;6.512;2024-03-08T10:49:54;11.70;96.60
60027;DHT22;45891;53.006;6.512;2024-03-08T10:52:20;12.10;97.90
60027;DHT22;45891;53.006;6.512;2024-03-08T10:54:47;12.70;97.70
60027;DHT22;45891;53.006;6.512;2024-03-08T10:57:14;12.50;96.00
60027;DHT22;45891;53.006;6.512;2024-03-08T10:59:41;12.50;96.50
60027;DHT22;45891;53.006;6.512;2024-03-08T11:02:11;12.80;97.00
60027;DHT22;45891;53.006;6.512;2024-03-08T11:04:37;12.90;96.10
60027;DHT22;45891;53.006;6.512;2024-03-08T11:07:03;13.00;96.40
60027;DHT22;45891;53.006;6.512;2024-03-08T11:09:35;13.00;96.40
60027;DHT22;45891;53.006;6.512;2024-03-08T11:14:54;12.60;95.80
60027;DHT22;45891;53.006;6.512;2024-03-08T11:19:59;12.90;96.30
60027;DHT22;45891;53.006;6.512;2024-03-08T11:22:27;13.30;95.80
60027;DHT22;45891;53.006;6.512;2024-03-08T11:25:03;13.40;95.40
60027;DHT22;45891;53.006;6.512;2024-03-08T11:27:34;13.60;94.60
60027;DHT22;45891;53.006;6.512;2024-03-08T11:30:07;13.60;95.20
60027;DHT22;45891;53.006;6.512;2024-03-08T11:32:37;13.90;95.80
60027;DHT22;45891;53.006;6.512;2024-03-08T11:35:19;14.30;95.10
60027;DHT22;45891;53.006;6.512;2024-03-08T11:37:46;14.30;94.80
60027;DHT22;45891;53.006;6.512;2024-03-08T11:40:12;14.30;95.00
60027;DHT22;45891;53.006;6.512;2024-03-08T11:42:47;14.30;94.00
60027;DHT22;45891;53.006;6.512;2024-03-08T11:45:14;14.30;94.20
60027;DHT22;45891;53.006;6.512;2024-03-08T11:47:45;15.10;95.20
60027;DHT22;45891;53.006;6.512;2024-03-08T11:50:15;15.00;93.20
60027;DHT22;45891;53.006;6.512;2024-03-08T11:52:41;14.60;93.50
60027;DHT22;45891;53.006;6.512;2024-03-08T11:55:08;14.20;92.90
60027;DHT22;45891;53.006;6.512;2024-03-08T11:57:34;13.90;93.90
60027;DHT22;45891;53.006;6.512;2024-03-08T12:00:00;14.20;94.30
60027;DHT22;45891;53.006;6.512;2024-03-08T12:02:35;13.90;93.90
60027;DHT22;45891;53.006;6.512;2024-03-08T12:05:06;14.20;93.90
60027;DHT22;45891;53.006;6.512;2024-03-08T12:07:34;14.60;94.70
60027;DHT22;45891;53.006;6.512;2024-03-08T12:12:45;14.50;93.50
60027;DHT22;45891;53.006;6.512;2024-03-08T12:15:12;14.20;92.80
60027;DHT22;45891;53.006;6.512;2024-03-08T12:17:39;14.30;94.50
60027;DHT22;45891;53.006;6.512;2024-03-08T12:20:12;14.90;93.50
60027;DHT22;45891;53.006;6.512;2024-03-08T12:22:42;14.80;93.10
60027;DHT22;45891;53.006;6.512;2024-03-08T12:25:08;14.90;92.90
60027;DHT22;45891;53.006;6.512;2024-03-08T12:27:36;14.50;92.80
60027;DHT22;45891;53.006;6.512;2024-03-08T12:30:15;14.30;92.60
60027;DHT22;45891;53.006;6.512;2024-03-08T12:32:45;14.10;92.80
60027;DHT22;45891;53.006;6.512;2024-03-08T12:35:12;14.60;93.90
60027;DHT22;45891;53.006;6.512;2024-03-08T12:37:39;15.20;92.50
60027;DHT22;45891;53.006;6.512;2024-03-08T12:40:07;14.80;92.50
60027;DHT22;45891;53.006;6.512;2024-03-08T12:42:33;15.20;92.80
60027;DHT22;45891;53.006;6.512;2024-03-08T12:45:00;15.30;92.90
60027;DHT22;45891;53.006;6.512;2024-03-08T12:47:27;15.30;92.20
60027;DHT22;45891;53.006;6.512;2024-03-08T12:49:55;15.70;92.20
60027;DHT22;45891;53.006;6.512;2024-03-08T12:52:21;16.10;91.70
60027;DHT22;45891;53.006;6.512;2024-03-08T12:54:47;15.90;91.90
60027;DHT22;45891;53.006;6.512;2024-03-08T12:57:13;16.20;92.40
60027;DHT22;45891;53.006;6.512;2024-03-08T12:59:39;16.10;91.00
60027;DHT22;45891;53.006;6.512;2024-03-08T13:02:05;16.00;92.10
60027;DHT22;45891;53.006;6.512;2024-03-08T13:04:32;15.90;92.20
60027;DHT22;45891;53.006;6.512;2024-03-08T13:06:58;15.90;91.70
60027;DHT22;45891;53.006;6.512;2024-03-08T13:09:24;15.30;91.50
60027;DHT22;45891;53.006;6.512;2024-03-08T13:11:53;15.30;91.80
60027;DHT22;45891;53.006;6.512;2024-03-08T13:14:21;15.60;91.30
60027;DHT22;45891;53.006;6.512;2024-03-08T13:16:47;16.10;92.80
60027;DHT22;45891;53.006;6.512;2024-03-08T13:19:13;16.40;91.20
60027;DHT22;45891;53.006;6.512;2024-03-08T13:21:39;16.30;90.70
60027;DHT22;45891;53.006;6.512;2024-03-08T13:24:05;15.90;90.70
60027;DHT22;45891;53.006;6.512;2024-03-08T13:26:31;16.20;91.80
60027;DHT22;45891;53.006;6.512;2024-03-08T13:29:00;16.10;91.30
60027;DHT22;45891;53.006;6.512;2024-03-08T13:31:26;16.60;91.70
60027;DHT22;45891;53.006;6.512;2024-03-08T13:33:52;17.00;91.20
60027;DHT22;45891;53.006;6.512;2024-03-08T13:36:23;16.70;90.50
60027;DHT22;45891;53.006;6.512;2024-03-08T13:38:54;16.90;90.30
60027;DHT22;45891;53.006;6.512;2024-03-08T13:41:20;16.50;90.80
60027;DHT22;45891;53.006;6.512;2024-03-08T13:43:50;16.40;90.90
60027;DHT22;45891;53.006;6.512;2024-03-08T13:46:16;16.90;91.70
60027;DHT22;45891;53.006;6.512;2024-03-08T13:48:42;17.20;90.80
60027;DHT22;45891;53.006;6.512;2024-03-08T13:51:08;16.80;90.50
60027;DHT22;45891;53.006;6.512;2024-03-08T13:53:41;16.80;90.00
60027;DHT22;45891;53.006;6.512;2024-03-08T13:56:07;17.00;90.10
60027;DHT22;45891;53.006;6.512;2024-03-08T13:58:36;16.80;90.50
60027;DHT22;45891;53.006;6.512;2024-03-08T14:01:02;16.10;90.30
60027;DHT22;45891;53.006;6.512;2024-03-08T14:03:31;16.10;90.80
60027;DHT22;45891;53.006;6.512;2024-03-08T14:05:58;15.40;90.80
60027;DHT22;45891;53.006;6.512;2024-03-08T14:08:24;15.70;90.90
60027;DHT22;45891;53.006;6.512;2024-03-08T14:10:52;16.40;90.50
60027;DHT22;45891;53.006;6.512;2024-03-08T14:13:19;17.00;90.70
60027;DHT22;45891;53.006;6.512;2024-03-08T14:15:46;17.40;90.90
60027;DHT22;45891;53.006;6.512;2024-03-08T14:18:14;17.10;90.40
60027;DHT22;45891;53.006;6.512;2024-03-08T14:20:41;16.60;90.20
60027;DHT22;45891;53.006;6.512;2024-03-08T14:23:07;16.80;90.60
60027;DHT22;45891;53.006;6.512;2024-03-08T14:25:33;17.00;90.40
60027;DHT22;45891;53.006;6.512;2024-03-08T14:27:59;16.90;90.70
60027;DHT22;45891;53.006;6.512;2024-03-08T14:30:33;17.40;90.00
60027;DHT22;45891;53.006;6.512;2024-03-08T14:33:06;16.70;89.10
60027;DHT22;45891;53.006;6.512;2024-03-08T14:35:38;16.70;90.60
60027;DHT22;45891;53.006;6.512;2024-03-08T14:38:04;16.50;90.30
60027;DHT22;45891;53.006;6.512;2024-03-08T14:40:30;16.20;88.90
60027;DHT22;45891;53.006;6.512;2024-03-08T14:42:56;15.90;90.00
60027;DHT22;45891;53.006;6.512;2024-03-08T14:45:26;15.20;90.50
60027;DHT22;45891;53.006;6.512;2024-03-08T14:47:52;15.10;90.90
60027;DHT22;45891;53.006;6.512;2024-03-08T14:50:19;15.00;90.80
60027;DHT22;45891;53.006;6.512;2024-03-08T14:52:45;15.30;91.10
60027;DHT22;45891;53.006;6.512;2024-03-08T14:55:22;15.50;90.80
60027;DHT22;45891;53.006;6.512;2024-03-08T14:57:48;15.00;90.40
60027;DHT22;45891;53.006;6.512;2024-03-08T15:00:16;15.10;90.60
60027;DHT22;45891;53.006;6.512;2024-03-08T15:02:44;15.20;90.10
60027;DHT22;45891;53.006;6.512;2024-03-08T15:05:10;14.80;90.20
60027;DHT22;45891;53.006;6.512;2024-03-08T15:07:39;15.70;91.10
60027;DHT22;45891;53.006;6.512;2024-03-08T15:10:06;16.10;90.50
60027;DHT22;45891;53.006;6.512;2024-03-08T15:12:37;15.90;90.10
60027;DHT22;45891;53.006;6.512;2024-03-08T15:15:06;15.60;90.20
60027;DHT22;45891;53.006;6.512;2024-03-08T15:17:34;15.70;90.00
60027;DHT22;45891;53.006;6.512;2024-03-08T15:20:03;16.20;90.70
60027;DHT22;45891;53.006;6.512;2024-03-08T15:22:29;16.20;90.20
60027;DHT22;45891;53.006;6.512;2024-03-08T15:24:55;15.70;89.50
60027;DHT22;45891;53.006;6.512;2024-03-08T15:27:23;15.70;90.00
60027;DHT22;45891;53.006;6.512;2024-03-08T15:29:50;15.90;90.20
60027;DHT22;45891;53.006;6.512;2024-03-08T15:32:17;15.70;90.60
60027;DHT22;45891;53.006;6.512;2024-03-08T15:34:45;15.50;90.30
60027;DHT22;45891;53.006;6.512;2024-03-08T15:37:12;15.00;90.50
60027;DHT22;45891;53.006;6.512;2024-03-08T15:39:43;14.40;90.50
60027;DHT22;45891;53.006;6.512;2024-03-08T15:42:09;14.20;90.60
60027;DHT22;45891;53.006;6.512;2024-03-08T15:44:37;14.50;91.00
60027;DHT22;45891;53.006;6.512;2024-03-08T15:47:04;14.10;90.30
60027;DHT22;45891;53.006;6.512;2024-03-08T15:49:36;13.60;91.10